Windsor Locks, Connecticut
Current Conditions -  °F | °C
As of 6:51 AM on Wednesday 28 Jan 2015 (Local Time) from KBDL Reporting Station
Scattered Clouds Scattered Clouds  
Wind Chill:   Ceiling: Unl
Heat Index: 13°   Visibility: 10mi
Dew Point:   Wind: 8mph
Humidity: 56%   Direction: 350°N
Pressure: 29.93"   Gusts: NA
Location:  41.93°N, 72.63°W
Report Text: KBDL 281151Z 35007KT 10SM FEW060 FEW160 SCT200 M11/M18 A2993 RMK AO2 SLP138 4/011 60000 70008 T11061178 11094 21122 53030
Loading
Personal Weather Stations






























Interactive Weather Map New forecast layout! Learn more

10-Day Weather Forecast

Advertisements
Track Severe Weather on mobile